sensor_id;sensor_type;location;lat;lon;timestamp;P1;durP1;ratioP1;P2;durP2;ratioP2
14665;SDS011;7420;53.574;10.040;2023-01-16T00:00:26;7.70;;;5.80;;
14665;SDS011;7420;53.574;10.040;2023-01-16T00:02:51;6.40;;;5.20;;
14665;SDS011;7420;53.574;10.040;2023-01-16T00:05:17;8.23;;;6.00;;
14665;SDS011;7420;53.574;10.040;2023-01-16T00:07:42;7.80;;;6.15;;
14665;SDS011;7420;53.574;10.040;2023-01-16T00:10:08;7.07;;;5.35;;
14665;SDS011;7420;53.574;10.040;2023-01-16T00:12:34;13.85;;;6.13;;
14665;SDS011;7420;53.574;10.040;2023-01-16T00:14:59;7.90;;;5.75;;
14665;SDS011;7420;53.574;10.040;2023-01-16T00:17:24;8.07;;;6.07;;
14665;SDS011;7420;53.574;10.040;2023-01-16T00:19:50;9.70;;;6.55;;
14665;SDS011;7420;53.574;10.040;2023-01-16T00:22:15;15.35;;;6.60;;
14665;SDS011;7420;53.574;10.040;2023-01-16T00:24:40;13.32;;;6.88;;
14665;SDS011;7420;53.574;10.040;2023-01-16T00:27:06;10.23;;;6.60;;
14665;SDS011;7420;53.574;10.040;2023-01-16T00:29:31;10.13;;;6.25;;
14665;SDS011;7420;53.574;10.040;2023-01-16T00:31:56;8.15;;;6.28;;
14665;SDS011;7420;53.574;10.040;2023-01-16T00:34:22;10.52;;;6.43;;
14665;SDS011;7420;53.574;10.040;2023-01-16T00:36:48;9.65;;;6.68;;
14665;SDS011;7420;53.574;10.040;2023-01-16T00:39:13;13.60;;;5.20;;
14665;SDS011;7420;53.574;10.040;2023-01-16T00:41:39;10.25;;;5.93;;
14665;SDS011;7420;53.574;10.040;2023-01-16T00:44:04;11.32;;;6.25;;
14665;SDS011;7420;53.574;10.040;2023-01-16T00:46:29;9.02;;;5.93;;
14665;SDS011;7420;53.574;10.040;2023-01-16T00:48:55;15.48;;;6.18;;
14665;SDS011;7420;53.574;10.040;2023-01-16T00:51:21;10.77;;;5.65;;
14665;SDS011;7420;53.574;10.040;2023-01-16T00:53:46;9.68;;;4.95;;
14665;SDS011;7420;53.574;10.040;2023-01-16T00:56:12;9.27;;;5.53;;
14665;SDS011;7420;53.574;10.040;2023-01-16T00:58:37;12.35;;;5.07;;
14665;SDS011;7420;53.574;10.040;2023-01-16T01:01:02;7.32;;;4.57;;
14665;SDS011;7420;53.574;10.040;2023-01-16T01:03:28;8.05;;;4.50;;
14665;SDS011;7420;53.574;10.040;2023-01-16T01:05:53;11.38;;;5.20;;
14665;SDS011;7420;53.574;10.040;2023-01-16T01:08:19;13.95;;;5.28;;
14665;SDS011;7420;53.574;10.040;2023-01-16T01:10:44;7.00;;;4.45;;
14665;SDS011;7420;53.574;10.040;2023-01-16T01:13:10;7.30;;;4.63;;
14665;SDS011;7420;53.574;10.040;2023-01-16T01:15:35;9.88;;;4.72;;
14665;SDS011;7420;53.574;10.040;2023-01-16T01:18:01;7.28;;;4.82;;
14665;SDS011;7420;53.574;10.040;2023-01-16T01:20:26;9.10;;;4.88;;
14665;SDS011;7420;53.574;10.040;2023-01-16T01:22:52;9.80;;;4.15;;
14665;SDS011;7420;53.574;10.040;2023-01-16T01:25:17;7.35;;;4.85;;
14665;SDS011;7420;53.574;10.040;2023-01-16T01:27:43;6.10;;;5.50;;
14665;SDS011;7420;53.574;10.040;2023-01-16T01:30:08;8.07;;;4.63;;
14665;SDS011;7420;53.574;10.040;2023-01-16T01:32:34;7.28;;;4.38;;
14665;SDS011;7420;53.574;10.040;2023-01-16T01:35:02;11.40;;;5.65;;
14665;SDS011;7420;53.574;10.040;2023-01-16T01:37:28;7.45;;;4.28;;
14665;SDS011;7420;53.574;10.040;2023-01-16T01:39:53;9.07;;;4.78;;
14665;SDS011;7420;53.574;10.040;2023-01-16T01:42:19;6.53;;;4.80;;
14665;SDS011;7420;53.574;10.040;2023-01-16T01:47:40;5.82;;;3.95;;
14665;SDS011;7420;53.574;10.040;2023-01-16T01:50:14;8.20;;;3.80;;
14665;SDS011;7420;53.574;10.040;2023-01-16T01:52:45;4.60;;;3.72;;
14665;SDS011;7420;53.574;10.040;2023-01-16T01:55:10;5.30;;;3.03;;
14665;SDS011;7420;53.574;10.040;2023-01-16T01:57:48;5.10;;;3.40;;
14665;SDS011;7420;53.574;10.040;2023-01-16T02:00:18;5.63;;;3.30;;
14665;SDS011;7420;53.574;10.040;2023-01-16T02:02:53;6.10;;;3.42;;
14665;SDS011;7420;53.574;10.040;2023-01-16T02:05:28;7.35;;;3.13;;
14665;SDS011;7420;53.574;10.040;2023-01-16T02:07:56;5.32;;;2.75;;
14665;SDS011;7420;53.574;10.040;2023-01-16T02:12:51;4.47;;;2.75;;
14665;SDS011;7420;53.574;10.040;2023-01-16T02:15:17;3.65;;;2.90;;
14665;SDS011;7420;53.574;10.040;2023-01-16T02:17:43;4.72;;;2.53;;
14665;SDS011;7420;53.574;10.040;2023-01-16T02:20:28;8.52;;;3.10;;
14665;SDS011;7420;53.574;10.040;2023-01-16T02:33:43;4.28;;;2.33;;
14665;SDS011;7420;53.574;10.040;2023-01-16T02:36:17;5.80;;;2.42;;
14665;SDS011;7420;53.574;10.040;2023-01-16T02:44:23;5.90;;;2.80;;
14665;SDS011;7420;53.574;10.040;2023-01-16T02:46:58;5.60;;;2.28;;
14665;SDS011;7420;53.574;10.040;2023-01-16T02:52:25;6.00;;;2.97;;
14665;SDS011;7420;53.574;10.040;2023-01-16T02:55:03;9.00;;;2.45;;
14665;SDS011;7420;53.574;10.040;2023-01-16T02:57:37;7.20;;;3.08;;
14665;SDS011;7420;53.574;10.040;2023-01-16T03:00:07;6.47;;;3.30;;
14665;SDS011;7420;53.574;10.040;2023-01-16T03:02:35;4.65;;;2.53;;
14665;SDS011;7420;53.574;10.040;2023-01-16T03:05:00;3.35;;;2.15;;
14665;SDS011;7420;53.574;10.040;2023-01-16T03:07:33;6.43;;;2.80;;
14665;SDS011;7420;53.574;10.040;2023-01-16T03:15:35;5.50;;;2.80;;
14665;SDS011;7420;53.574;10.040;2023-01-16T03:18:23;4.15;;;2.58;;
14665;SDS011;7420;53.574;10.040;2023-01-16T03:20:58;5.32;;;2.95;;
14665;SDS011;7420;53.574;10.040;2023-01-16T03:26:28;5.15;;;3.33;;
14665;SDS011;7420;53.574;10.040;2023-01-16T03:34:34;6.15;;;2.30;;
14665;SDS011;7420;53.574;10.040;2023-01-16T03:37:05;8.88;;;2.53;;
14665;SDS011;7420;53.574;10.040;2023-01-16T03:39:34;3.03;;;1.90;;
14665;SDS011;7420;53.574;10.040;2023-01-16T03:42:04;5.10;;;2.72;;
14665;SDS011;7420;53.574;10.040;2023-01-16T03:44:35;8.40;;;3.17;;
14665;SDS011;7420;53.574;10.040;2023-01-16T03:47:06;3.90;;;2.42;;
14665;SDS011;7420;53.574;10.040;2023-01-16T03:49:41;6.57;;;2.42;;
14665;SDS011;7420;53.574;10.040;2023-01-16T03:52:13;3.53;;;2.17;;
14665;SDS011;7420;53.574;10.040;2023-01-16T03:57:23;5.75;;;2.80;;
14665;SDS011;7420;53.574;10.040;2023-01-16T03:59:52;7.57;;;2.53;;
14665;SDS011;7420;53.574;10.040;2023-01-16T04:02:23;4.45;;;2.55;;
14665;SDS011;7420;53.574;10.040;2023-01-16T04:04:58;2.83;;;2.28;;
14665;SDS011;7420;53.574;10.040;2023-01-16T04:07:31;3.90;;;2.45;;
14665;SDS011;7420;53.574;10.040;2023-01-16T04:10:05;3.63;;;2.10;;
14665;SDS011;7420;53.574;10.040;2023-01-16T04:12:42;4.25;;;2.75;;
14665;SDS011;7420;53.574;10.040;2023-01-16T04:15:12;5.30;;;3.08;;
14665;SDS011;7420;53.574;10.040;2023-01-16T04:17:39;2.08;;;1.95;;
14665;SDS011;7420;53.574;10.040;2023-01-16T04:20:05;3.55;;;2.53;;
14665;SDS011;7420;53.574;10.040;2023-01-16T04:22:32;4.90;;;2.80;;
14665;SDS011;7420;53.574;10.040;2023-01-16T04:24:59;7.95;;;2.90;;
14665;SDS011;7420;53.574;10.040;2023-01-16T04:27:26;5.78;;;2.85;;
14665;SDS011;7420;53.574;10.040;2023-01-16T04:29:52;4.68;;;2.70;;
14665;SDS011;7420;53.574;10.040;2023-01-16T04:32:18;3.92;;;2.40;;
14665;SDS011;7420;53.574;10.040;2023-01-16T04:34:43;6.30;;;2.67;;
14665;SDS011;7420;53.574;10.040;2023-01-16T04:37:09;4.10;;;2.00;;
14665;SDS011;7420;53.574;10.040;2023-01-16T04:39:38;3.75;;;2.42;;
14665;SDS011;7420;53.574;10.040;2023-01-16T04:42:05;7.25;;;2.22;;
14665;SDS011;7420;53.574;10.040;2023-01-16T04:44:31;6.32;;;2.00;;
14665;SDS011;7420;53.574;10.040;2023-01-16T04:46:56;4.43;;;2.10;;
14665;SDS011;7420;53.574;10.040;2023-01-16T04:49:21;10.50;;;2.35;;
14665;SDS011;7420;53.574;10.040;2023-01-16T04:51:47;5.93;;;2.45;;
14665;SDS011;7420;53.574;10.040;2023-01-16T04:54:13;7.63;;;2.90;;
14665;SDS011;7420;53.574;10.040;2023-01-16T04:56:40;5.10;;;2.13;;
14665;SDS011;7420;53.574;10.040;2023-01-16T04:59:06;3.13;;;1.80;;
14665;SDS011;7420;53.574;10.040;2023-01-16T05:01:32;4.07;;;1.90;;
14665;SDS011;7420;53.574;10.040;2023-01-16T05:04:00;8.15;;;2.30;;
14665;SDS011;7420;53.574;10.040;2023-01-16T05:06:36;6.75;;;1.80;;
14665;SDS011;7420;53.574;10.040;2023-01-16T05:09:02;3.58;;;2.00;;
14665;SDS011;7420;53.574;10.040;2023-01-16T05:11:28;4.70;;;1.98;;
14665;SDS011;7420;53.574;10.040;2023-01-16T05:13:54;2.47;;;2.00;;
14665;SDS011;7420;53.574;10.040;2023-01-16T05:16:20;3.42;;;1.73;;
14665;SDS011;7420;53.574;10.040;2023-01-16T05:18:45;5.30;;;2.08;;
14665;SDS011;7420;53.574;10.040;2023-01-16T05:21:10;2.00;;;1.83;;
14665;SDS011;7420;53.574;10.040;2023-01-16T05:23:36;6.18;;;1.70;;
14665;SDS011;7420;53.574;10.040;2023-01-16T05:26:02;3.08;;;1.65;;
14665;SDS011;7420;53.574;10.040;2023-01-16T05:28:28;1.73;;;1.58;;
14665;SDS011;7420;53.574;10.040;2023-01-16T05:30:54;5.03;;;2.22;;
14665;SDS011;7420;53.574;10.040;2023-01-16T05:33:19;3.28;;;1.73;;
14665;SDS011;7420;53.574;10.040;2023-01-16T05:35:45;2.85;;;1.85;;
14665;SDS011;7420;53.574;10.040;2023-01-16T05:38:11;3.05;;;2.05;;
14665;SDS011;7420;53.574;10.040;2023-01-16T05:40:37;3.63;;;2.03;;
14665;SDS011;7420;53.574;10.040;2023-01-16T05:43:03;3.53;;;2.28;;
14665;SDS011;7420;53.574;10.040;2023-01-16T05:45:29;3.47;;;1.70;;
14665;SDS011;7420;53.574;10.040;2023-01-16T05:47:54;3.67;;;2.17;;
14665;SDS011;7420;53.574;10.040;2023-01-16T05:50:20;2.90;;;1.55;;
14665;SDS011;7420;53.574;10.040;2023-01-16T05:52:45;2.92;;;1.60;;
14665;SDS011;7420;53.574;10.040;2023-01-16T05:55:10;6.53;;;3.70;;
14665;SDS011;7420;53.574;10.040;2023-01-16T05:57:36;4.28;;;2.47;;
14665;SDS011;7420;53.574;10.040;2023-01-16T06:00:02;4.10;;;1.95;;
14665;SDS011;7420;53.574;10.040;2023-01-16T06:02:28;3.78;;;1.60;;
14665;SDS011;7420;53.574;10.040;2023-01-16T06:04:53;3.60;;;2.03;;
14665;SDS011;7420;53.574;10.040;2023-01-16T06:07:19;2.70;;;1.70;;
14665;SDS011;7420;53.574;10.040;2023-01-16T06:09:44;2.72;;;1.60;;
14665;SDS011;7420;53.574;10.040;2023-01-16T06:12:16;5.97;;;2.83;;
14665;SDS011;7420;53.574;10.040;2023-01-16T06:14:43;3.15;;;1.60;;
14665;SDS011;7420;53.574;10.040;2023-01-16T06:17:08;7.35;;;2.20;;
14665;SDS011;7420;53.574;10.040;2023-01-16T06:19:34;2.65;;;1.60;;
14665;SDS011;7420;53.574;10.040;2023-01-16T06:21:59;4.53;;;2.55;;
14665;SDS011;7420;53.574;10.040;2023-01-16T06:24:25;2.42;;;1.55;;
14665;SDS011;7420;53.574;10.040;2023-01-16T06:26:50;5.25;;;1.95;;
14665;SDS011;7420;53.574;10.040;2023-01-16T06:29:16;3.67;;;1.83;;
14665;SDS011;7420;53.574;10.040;2023-01-16T06:31:41;3.58;;;1.83;;
14665;SDS011;7420;53.574;10.040;2023-01-16T06:34:06;3.60;;;2.50;;
14665;SDS011;7420;53.574;10.040;2023-01-16T06:36:32;2.00;;;1.60;;
14665;SDS011;7420;53.574;10.040;2023-01-16T06:38:57;5.50;;;2.50;;
14665;SDS011;7420;53.574;10.040;2023-01-16T06:41:23;6.40;;;2.13;;
14665;SDS011;7420;53.574;10.040;2023-01-16T06:43:48;1.95;;;1.73;;
14665;SDS011;7420;53.574;10.040;2023-01-16T06:46:13;4.53;;;2.22;;
14665;SDS011;7420;53.574;10.040;2023-01-16T06:48:39;5.18;;;3.03;;
14665;SDS011;7420;53.574;10.040;2023-01-16T06:51:06;4.10;;;1.85;;
14665;SDS011;7420;53.574;10.040;2023-01-16T06:53:31;4.80;;;1.90;;
14665;SDS011;7420;53.574;10.040;2023-01-16T06:55:57;3.40;;;2.00;;
14665;SDS011;7420;53.574;10.040;2023-01-16T06:58:22;3.63;;;1.80;;
14665;SDS011;7420;53.574;10.040;2023-01-16T07:00:47;6.70;;;2.30;;
14665;SDS011;7420;53.574;10.040;2023-01-16T07:03:16;5.53;;;2.30;;
14665;SDS011;7420;53.574;10.040;2023-01-16T07:05:43;4.97;;;1.90;;
14665;SDS011;7420;53.574;10.040;2023-01-16T07:08:09;2.83;;;1.67;;
14665;SDS011;7420;53.574;10.040;2023-01-16T07:10:34;4.97;;;1.73;;
14665;SDS011;7420;53.574;10.040;2023-01-16T07:13:00;2.88;;;2.05;;
14665;SDS011;7420;53.574;10.040;2023-01-16T07:15:26;5.43;;;2.30;;
14665;SDS011;7420;53.574;10.040;2023-01-16T07:18:13;3.65;;;1.77;;
14665;SDS011;7420;53.574;10.040;2023-01-16T07:20:59;1.73;;;1.60;;
14665;SDS011;7420;53.574;10.040;2023-01-16T07:23:49;4.97;;;2.22;;
14665;SDS011;7420;53.574;10.040;2023-01-16T07:26:17;5.65;;;3.03;;
14665;SDS011;7420;53.574;10.040;2023-01-16T07:28:44;5.45;;;1.80;;
14665;SDS011;7420;53.574;10.040;2023-01-16T07:31:11;2.50;;;1.85;;
14665;SDS011;7420;53.574;10.040;2023-01-16T07:33:37;4.80;;;1.73;;
14665;SDS011;7420;53.574;10.040;2023-01-16T07:36:02;3.38;;;1.70;;
14665;SDS011;7420;53.574;10.040;2023-01-16T07:38:28;3.50;;;2.08;;
14665;SDS011;7420;53.574;10.040;2023-01-16T07:40:53;3.00;;;2.22;;
14665;SDS011;7420;53.574;10.040;2023-01-16T07:43:19;3.63;;;2.28;;
14665;SDS011;7420;53.574;10.040;2023-01-16T07:45:44;3.72;;;1.70;;
14665;SDS011;7420;53.574;10.040;2023-01-16T07:48:13;1.73;;;1.50;;
14665;SDS011;7420;53.574;10.040;2023-01-16T07:50:39;3.33;;;1.85;;
14665;SDS011;7420;53.574;10.040;2023-01-16T07:53:04;3.47;;;2.40;;
14665;SDS011;7420;53.574;10.040;2023-01-16T07:55:29;4.72;;;2.35;;
14665;SDS011;7420;53.574;10.040;2023-01-16T07:57:55;6.65;;;2.22;;
14665;SDS011;7420;53.574;10.040;2023-01-16T08:00:20;6.28;;;2.28;;
14665;SDS011;7420;53.574;10.040;2023-01-16T08:02:46;4.38;;;2.05;;
14665;SDS011;7420;53.574;10.040;2023-01-16T08:05:11;4.40;;;2.03;;
14665;SDS011;7420;53.574;10.040;2023-01-16T08:07:36;3.75;;;2.00;;
14665;SDS011;7420;53.574;10.040;2023-01-16T08:10:02;2.33;;;1.83;;
14665;SDS011;7420;53.574;10.040;2023-01-16T08:12:29;3.50;;;2.15;;
14665;SDS011;7420;53.574;10.040;2023-01-16T08:14:54;5.78;;;2.88;;
14665;SDS011;7420;53.574;10.040;2023-01-16T08:17:19;6.10;;;2.33;;
14665;SDS011;7420;53.574;10.040;2023-01-16T08:19:45;4.10;;;2.25;;
14665;SDS011;7420;53.574;10.040;2023-01-16T08:22:10;5.00;;;2.25;;
14665;SDS011;7420;53.574;10.040;2023-01-16T08:24:35;2.53;;;2.20;;
14665;SDS011;7420;53.574;10.040;2023-01-16T08:27:01;3.03;;;1.70;;
14665;SDS011;7420;53.574;10.040;2023-01-16T08:29:26;5.28;;;1.88;;
14665;SDS011;7420;53.574;10.040;2023-01-16T08:31:52;3.90;;;2.35;;
14665;SDS011;7420;53.574;10.040;2023-01-16T08:34:17;2.08;;;1.80;;
14665;SDS011;7420;53.574;10.040;2023-01-16T08:36:42;6.38;;;1.95;;
14665;SDS011;7420;53.574;10.040;2023-01-16T08:39:08;1.70;;;1.60;;
14665;SDS011;7420;53.574;10.040;2023-01-16T08:41:35;1.75;;;1.65;;
14665;SDS011;7420;53.574;10.040;2023-01-16T08:44:19;4.28;;;1.88;;
14665;SDS011;7420;53.574;10.040;2023-01-16T08:49:50;3.30;;;1.90;;
14665;SDS011;7420;53.574;10.040;2023-01-16T08:52:35;6.47;;;2.58;;
14665;SDS011;7420;53.574;10.040;2023-01-16T08:55:01;6.03;;;1.90;;
14665;SDS011;7420;53.574;10.040;2023-01-16T08:57:27;4.55;;;1.92;;
14665;SDS011;7420;53.574;10.040;2023-01-16T08:59:53;2.85;;;2.08;;
14665;SDS011;7420;53.574;10.040;2023-01-16T09:02:19;5.50;;;2.30;;
14665;SDS011;7420;53.574;10.040;2023-01-16T09:04:45;4.85;;;2.17;;
14665;SDS011;7420;53.574;10.040;2023-01-16T09:07:12;4.80;;;2.03;;
14665;SDS011;7420;53.574;10.040;2023-01-16T09:09:38;3.95;;;2.10;;
14665;SDS011;7420;53.574;10.040;2023-01-16T09:12:07;2.72;;;1.92;;
14665;SDS011;7420;53.574;10.040;2023-01-16T09:14:52;9.30;;;2.88;;
14665;SDS011;7420;53.574;10.040;2023-01-16T09:17:17;2.97;;;2.15;;
14665;SDS011;7420;53.574;10.040;2023-01-16T09:19:42;3.80;;;2.08;;
14665;SDS011;7420;53.574;10.040;2023-01-16T09:22:08;2.72;;;1.80;;
14665;SDS011;7420;53.574;10.040;2023-01-16T09:24:33;4.18;;;1.88;;
14665;SDS011;7420;53.574;10.040;2023-01-16T09:27:00;2.05;;;1.70;;
14665;SDS011;7420;53.574;10.040;2023-01-16T09:29:26;3.53;;;2.33;;
14665;SDS011;7420;53.574;10.040;2023-01-16T09:31:52;3.05;;;2.15;;
14665;SDS011;7420;53.574;10.040;2023-01-16T09:34:17;4.18;;;1.90;;
14665;SDS011;7420;53.574;10.040;2023-01-16T09:36:42;5.18;;;1.92;;
14665;SDS011;7420;53.574;10.040;2023-01-16T09:39:08;2.40;;;1.75;;
14665;SDS011;7420;53.574;10.040;2023-01-16T09:41:35;3.20;;;2.03;;
14665;SDS011;7420;53.574;10.040;2023-01-16T09:44:37;3.33;;;1.90;;
14665;SDS011;7420;53.574;10.040;2023-01-16T09:47:02;4.63;;;1.92;;
14665;SDS011;7420;53.574;10.040;2023-01-16T09:49:43;3.38;;;1.67;;
14665;SDS011;7420;53.574;10.040;2023-01-16T09:52:12;4.78;;;2.10;;
14665;SDS011;7420;53.574;10.040;2023-01-16T09:55:01;6.97;;;1.77;;
14665;SDS011;7420;53.574;10.040;2023-01-16T09:57:49;5.18;;;2.10;;
14665;SDS011;7420;53.574;10.040;2023-01-16T10:00:34;2.45;;;2.08;;
14665;SDS011;7420;53.574;10.040;2023-01-16T10:03:00;4.88;;;2.20;;
14665;SDS011;7420;53.574;10.040;2023-01-16T10:05:42;4.38;;;1.77;;
14665;SDS011;7420;53.574;10.040;2023-01-16T10:10:51;10.02;;;4.32;;
14665;SDS011;7420;53.574;10.040;2023-01-16T10:18:53;3.30;;;1.63;;
14665;SDS011;7420;53.574;10.040;2023-01-16T10:29:47;3.28;;;1.75;;
14665;SDS011;7420;53.574;10.040;2023-01-16T10:37:36;3.80;;;2.08;;
14665;SDS011;7420;53.574;10.040;2023-01-16T10:40:16;9.05;;;3.92;;
14665;SDS011;7420;53.574;10.040;2023-01-16T10:42:46;7.60;;;2.90;;
14665;SDS011;7420;53.574;10.040;2023-01-16T10:45:35;2.25;;;1.52;;
14665;SDS011;7420;53.574;10.040;2023-01-16T10:48:20;6.90;;;2.88;;
14665;SDS011;7420;53.574;10.040;2023-01-16T10:51:04;2.80;;;2.05;;
14665;SDS011;7420;53.574;10.040;2023-01-16T10:53:31;5.50;;;2.58;;
14665;SDS011;7420;53.574;10.040;2023-01-16T10:55:59;2.75;;;1.83;;
14665;SDS011;7420;53.574;10.040;2023-01-16T10:58:30;4.18;;;1.90;;
14665;SDS011;7420;53.574;10.040;2023-01-16T11:01:16;4.65;;;2.00;;
14665;SDS011;7420;53.574;10.040;2023-01-16T11:03:44;3.95;;;2.00;;
14665;SDS011;7420;53.574;10.040;2023-01-16T11:08:47;2.22;;;1.77;;
14665;SDS011;7420;53.574;10.040;2023-01-16T11:11:16;3.92;;;2.10;;
14665;SDS011;7420;53.574;10.040;2023-01-16T11:14:03;3.63;;;1.98;;
14665;SDS011;7420;53.574;10.040;2023-01-16T11:19:42;3.88;;;2.00;;
14665;SDS011;7420;53.574;10.040;2023-01-16T11:22:42;3.25;;;2.20;;
14665;SDS011;7420;53.574;10.040;2023-01-16T11:25:03;2.75;;;2.33;;
14665;SDS011;7420;53.574;10.040;2023-01-16T11:27:31;2.83;;;1.65;;
14665;SDS011;7420;53.574;10.040;2023-01-16T11:30:02;4.15;;;1.67;;
14665;SDS011;7420;53.574;10.040;2023-01-16T11:32:31;3.65;;;1.95;;
14665;SDS011;7420;53.574;10.040;2023-01-16T11:35:03;3.35;;;1.77;;
14665;SDS011;7420;53.574;10.040;2023-01-16T11:37:38;3.15;;;1.70;;
14665;SDS011;7420;53.574;10.040;2023-01-16T11:40:06;3.40;;;1.80;;
14665;SDS011;7420;53.574;10.040;2023-01-16T11:42:50;4.75;;;2.00;;
14665;SDS011;7420;53.574;10.040;2023-01-16T11:45:34;5.72;;;1.88;;
14665;SDS011;7420;53.574;10.040;2023-01-16T11:48:25;3.80;;;1.60;;
14665;SDS011;7420;53.574;10.040;2023-01-16T11:50:51;3.28;;;1.95;;
14665;SDS011;7420;53.574;10.040;2023-01-16T11:53:19;4.22;;;1.80;;
14665;SDS011;7420;53.574;10.040;2023-01-16T11:56:05;2.13;;;1.65;;
14665;SDS011;7420;53.574;10.040;2023-01-16T12:04:43;3.53;;;2.20;;
14665;SDS011;7420;53.574;10.040;2023-01-16T12:07:50;2.78;;;1.90;;
14665;SDS011;7420;53.574;10.040;2023-01-16T12:10:49;4.05;;;2.00;;
14665;SDS011;7420;53.574;10.040;2023-01-16T12:13:15;2.30;;;1.40;;
14665;SDS011;7420;53.574;10.040;2023-01-16T12:35:31;4.25;;;2.45;;
14665;SDS011;7420;53.574;10.040;2023-01-16T12:38:07;3.45;;;1.48;;
14665;SDS011;7420;53.574;10.040;2023-01-16T12:44:01;2.80;;;1.77;;
14665;SDS011;7420;53.574;10.040;2023-01-16T12:46:46;2.67;;;2.08;;
14665;SDS011;7420;53.574;10.040;2023-01-16T12:57:46;4.22;;;2.10;;
14665;SDS011;7420;53.574;10.040;2023-01-16T13:00:20;3.40;;;2.13;;
14665;SDS011;7420;53.574;10.040;2023-01-16T13:02:57;5.10;;;2.67;;
14665;SDS011;7420;53.574;10.040;2023-01-16T13:05:28;3.03;;;1.58;;
14665;SDS011;7420;53.574;10.040;2023-01-16T13:08:10;6.18;;;1.85;;
14665;SDS011;7420;53.574;10.040;2023-01-16T13:10:46;3.17;;;1.63;;
14665;SDS011;7420;53.574;10.040;2023-01-16T13:13:55;4.00;;;2.10;;
14665;SDS011;7420;53.574;10.040;2023-01-16T13:21:36;2.30;;;1.52;;
14665;SDS011;7420;53.574;10.040;2023-01-16T13:24:19;5.32;;;1.92;;
14665;SDS011;7420;53.574;10.040;2023-01-16T13:26:51;2.97;;;1.65;;
14665;SDS011;7420;53.574;10.040;2023-01-16T13:29:40;1.77;;;1.50;;
14665;SDS011;7420;53.574;10.040;2023-01-16T13:32:29;3.65;;;1.92;;
14665;SDS011;7420;53.574;10.040;2023-01-16T13:35:06;3.63;;;1.75;;
14665;SDS011;7420;53.574;10.040;2023-01-16T13:40:45;2.90;;;1.73;;
14665;SDS011;7420;53.574;10.040;2023-01-16T13:43:30;3.80;;;2.58;;
14665;SDS011;7420;53.574;10.040;2023-01-16T13:46:20;3.47;;;1.50;;
14665;SDS011;7420;53.574;10.040;2023-01-16T13:48:51;4.15;;;2.00;;
14665;SDS011;7420;53.574;10.040;2023-01-16T13:51:18;3.10;;;1.60;;
14665;SDS011;7420;53.574;10.040;2023-01-16T13:54:01;3.45;;;1.90;;
14665;SDS011;7420;53.574;10.040;2023-01-16T13:56:30;3.75;;;1.92;;
14665;SDS011;7420;53.574;10.040;2023-01-16T14:01:54;2.92;;;1.50;;
14665;SDS011;7420;53.574;10.040;2023-01-16T14:06:52;2.05;;;1.50;;
14665;SDS011;7420;53.574;10.040;2023-01-16T14:12:32;4.43;;;1.88;;
14665;SDS011;7420;53.574;10.040;2023-01-16T14:18:21;2.10;;;1.80;;
14665;SDS011;7420;53.574;10.040;2023-01-16T14:21:05;6.72;;;3.47;;
14665;SDS011;7420;53.574;10.040;2023-01-16T14:23:37;6.38;;;2.22;;
14665;SDS011;7420;53.574;10.040;2023-01-16T14:29:04;4.90;;;1.90;;
14665;SDS011;7420;53.574;10.040;2023-01-16T14:31:38;3.95;;;2.35;;
14665;SDS011;7420;53.574;10.040;2023-01-16T14:34:10;3.70;;;1.98;;
14665;SDS011;7420;53.574;10.040;2023-01-16T14:36:41;4.53;;;1.90;;
14665;SDS011;7420;53.574;10.040;2023-01-16T14:39:26;3.53;;;1.60;;
14665;SDS011;7420;53.574;10.040;2023-01-16T14:41:55;2.22;;;2.00;;
14665;SDS011;7420;53.574;10.040;2023-01-16T14:44:58;2.53;;;1.73;;
14665;SDS011;7420;53.574;10.040;2023-01-16T14:48:33;3.45;;;2.28;;
14665;SDS011;7420;53.574;10.040;2023-01-16T14:57:00;2.45;;;2.05;;
14665;SDS011;7420;53.574;10.040;2023-01-16T14:59:32;4.68;;;1.95;;
14665;SDS011;7420;53.574;10.040;2023-01-16T15:02:05;3.67;;;2.25;;
14665;SDS011;7420;53.574;10.040;2023-01-16T15:07:16;5.47;;;2.03;;
14665;SDS011;7420;53.574;10.040;2023-01-16T15:09:46;2.53;;;1.80;;
14665;SDS011;7420;53.574;10.040;2023-01-16T15:12:13;4.40;;;2.55;;
14665;SDS011;7420;53.574;10.040;2023-01-16T15:14:55;4.90;;;2.53;;
14665;SDS011;7420;53.574;10.040;2023-01-16T15:17:25;12.40;;;4.75;;
14665;SDS011;7420;53.574;10.040;2023-01-16T15:22:56;3.70;;;2.33;;
14665;SDS011;7420;53.574;10.040;2023-01-16T15:25:39;2.80;;;2.13;;
14665;SDS011;7420;53.574;10.040;2023-01-16T15:31:00;4.50;;;2.03;;
14665;SDS011;7420;53.574;10.040;2023-01-16T15:33:57;3.25;;;1.80;;
14665;SDS011;7420;53.574;10.040;2023-01-16T15:36:25;5.30;;;2.78;;
14665;SDS011;7420;53.574;10.040;2023-01-16T15:39:44;4.50;;;1.85;;
14665;SDS011;7420;53.574;10.040;2023-01-16T15:42:02;4.78;;;1.98;;
14665;SDS011;7420;53.574;10.040;2023-01-16T15:44:49;4.07;;;2.47;;
14665;SDS011;7420;53.574;10.040;2023-01-16T15:53:23;6.80;;;1.55;;
14665;SDS011;7420;53.574;10.040;2023-01-16T15:55:51;2.25;;;1.67;;
14665;SDS011;7420;53.574;10.040;2023-01-16T15:58:21;2.80;;;1.90;;
14665;SDS011;7420;53.574;10.040;2023-01-16T16:00:59;3.95;;;2.17;;
14665;SDS011;7420;53.574;10.040;2023-01-16T16:03:30;2.35;;;1.50;;
14665;SDS011;7420;53.574;10.040;2023-01-16T16:06:04;2.28;;;2.00;;
14665;SDS011;7420;53.574;10.040;2023-01-16T16:08:32;5.85;;;2.03;;
14665;SDS011;7420;53.574;10.040;2023-01-16T16:11:03;6.25;;;1.65;;
14665;SDS011;7420;53.574;10.040;2023-01-16T16:13:49;3.28;;;1.73;;
14665;SDS011;7420;53.574;10.040;2023-01-16T16:16:16;3.08;;;2.03;;
14665;SDS011;7420;53.574;10.040;2023-01-16T16:19:08;3.00;;;1.83;;
14665;SDS011;7420;53.574;10.040;2023-01-16T16:21:36;5.20;;;1.95;;
14665;SDS011;7420;53.574;10.040;2023-01-16T16:24:34;3.20;;;1.90;;
14665;SDS011;7420;53.574;10.040;2023-01-16T16:27:05;3.67;;;1.80;;
14665;SDS011;7420;53.574;10.040;2023-01-16T16:29:32;5.03;;;1.83;;
14665;SDS011;7420;53.574;10.040;2023-01-16T16:32:06;5.80;;;1.95;;
14665;SDS011;7420;53.574;10.040;2023-01-16T16:34:38;2.67;;;1.98;;
14665;SDS011;7420;53.574;10.040;2023-01-16T16:37:14;4.25;;;2.25;;
14665;SDS011;7420;53.574;10.040;2023-01-16T16:39:47;5.25;;;2.13;;
14665;SDS011;7420;53.574;10.040;2023-01-16T16:47:32;3.25;;;1.67;;
14665;SDS011;7420;53.574;10.040;2023-01-16T16:50:01;2.38;;;1.80;;
14665;SDS011;7420;53.574;10.040;2023-01-16T16:52:47;4.85;;;1.80;;
14665;SDS011;7420;53.574;10.040;2023-01-16T16:55:30;4.55;;;2.20;;
14665;SDS011;7420;53.574;10.040;2023-01-16T16:57:59;1.95;;;1.80;;
14665;SDS011;7420;53.574;10.040;2023-01-16T17:00:26;4.28;;;2.03;;
14665;SDS011;7420;53.574;10.040;2023-01-16T17:02:59;2.50;;;1.70;;
14665;SDS011;7420;53.574;10.040;2023-01-16T17:05:29;3.42;;;2.15;;
14665;SDS011;7420;53.574;10.040;2023-01-16T17:07:55;4.53;;;2.20;;
14665;SDS011;7420;53.574;10.040;2023-01-16T17:10:22;21.75;;;8.77;;
14665;SDS011;7420;53.574;10.040;2023-01-16T17:12:47;18.13;;;6.68;;
14665;SDS011;7420;53.574;10.040;2023-01-16T17:15:13;6.00;;;2.55;;
14665;SDS011;7420;53.574;10.040;2023-01-16T17:17:41;4.30;;;1.70;;
14665;SDS011;7420;53.574;10.040;2023-01-16T17:20:19;2.53;;;1.73;;
14665;SDS011;7420;53.574;10.040;2023-01-16T17:22:47;5.78;;;2.00;;
14665;SDS011;7420;53.574;10.040;2023-01-16T17:25:14;6.03;;;2.63;;
14665;SDS011;7420;53.574;10.040;2023-01-16T17:27:45;3.25;;;1.67;;
14665;SDS011;7420;53.574;10.040;2023-01-16T17:30:12;3.63;;;2.25;;
14665;SDS011;7420;53.574;10.040;2023-01-16T17:32:38;4.80;;;2.03;;
14665;SDS011;7420;53.574;10.040;2023-01-16T17:35:04;3.78;;;2.20;;
14665;SDS011;7420;53.574;10.040;2023-01-16T17:37:29;3.65;;;1.90;;
14665;SDS011;7420;53.574;10.040;2023-01-16T17:39:55;5.80;;;1.92;;
14665;SDS011;7420;53.574;10.040;2023-01-16T17:42:20;3.95;;;2.03;;
14665;SDS011;7420;53.574;10.040;2023-01-16T17:44:46;3.75;;;2.03;;
14665;SDS011;7420;53.574;10.040;2023-01-16T17:49:57;3.85;;;2.50;;